Time;durP1;ratioP1;P1;durP2;ratioP2;P2;SDS_P1;SDS_P2;PMS_P1;PMS_P2;Temp;Humidity;BMP_temperature;BMP_pressure;BME280_temperature;BME280_humidity;BME280_pressure;Samples;Min_cycle;Max_cycle;Signal;HPM_P1;HPM_P2
2021/12/14 00:00:45;;;;;;;15.83;5.40;;;;;;;14.27;100.00;101859.31;4965640;28;20531;-89
2021/12/14 00:03:14;;;;;;;16.60;5.00;;;;;;;14.27;100.00;101860.19;4997757;28;20542;-89
2021/12/14 00:05:44;;;;;;;21.20;5.70;;;;;;;14.23;100.00;101836.88;4982106;28;20527;-89
2021/12/14 00:08:14;;;;;;;17.80;5.67;;;;;;;14.33;100.00;101859.44;4997319;28;20591;-89
2021/12/14 00:11:11;;;;;;;12.77;5.13;;;;;;;14.36;100.00;101861.78;4998026;28;20927;-89
2021/12/14 00:16:11;;;;;;;18.90;6.00;;;;;;;14.45;100.00;101863.41;5031177;28;20482;-89
2021/12/14 00:18:39;;;;;;;19.93;5.33;;;;;;;14.45;100.00;101846.91;5053889;28;20435;-89
2021/12/14 00:21:34;;;;;;;24.93;5.87;;;;;;;14.47;100.00;101850.31;5071205;28;20442;-88
2021/12/14 00:24:06;;;;;;;19.57;6.27;;;;;;;14.52;100.00;101853.34;5063030;28;21042;-88
2021/12/14 00:26:37;;;;;;;31.30;5.70;;;;;;;14.49;100.00;101845.47;5058222;28;20430;-88
2021/12/14 00:29:05;;;;;;;24.93;5.80;;;;;;;14.48;100.00;101838.28;5074312;28;20449;-89
2021/12/14 00:31:36;;;;;;;30.23;6.70;;;;;;;14.51;100.00;101845.28;5058015;28;20495;-89
2021/12/14 00:34:06;;;;;;;22.63;6.33;;;;;;;14.54;100.00;101847.66;5054343;28;20443;-89
2021/12/14 00:36:37;;;;;;;14.90;6.07;;;;;;;14.54;100.00;101844.06;5054054;28;20466;-89
2021/12/14 00:39:07;;;;;;;21.70;7.20;;;;;;;14.57;100.00;101843.69;5054273;28;20442;-89
2021/12/14 00:41:37;;;;;;;22.17;6.80;;;;;;;14.56;100.00;101833.72;5038459;28;20496;-90
2021/12/14 00:44:05;;;;;;;21.13;6.83;;;;;;;14.62;100.00;101846.72;5086857;28;20561;-89
2021/12/14 00:46:35;;;;;;;26.53;6.23;;;;;;;14.62;100.00;101842.06;5070771;28;20461;-90
2021/12/14 00:49:05;;;;;;;27.47;7.90;;;;;;;14.64;100.00;101841.84;5092536;28;20481;-89
2021/12/14 00:51:34;;;;;;;23.63;7.90;;;;;;;14.70;100.00;101849.34;5087394;28;20978;-90
2021/12/14 00:54:04;;;;;;;29.97;6.93;;;;;;;14.70;100.00;101844.69;5086924;28;20447;-90
2021/12/14 00:56:33;;;;;;;23.43;6.60;;;;;;;14.77;100.00;101833.75;5066871;28;20492;-89
2021/12/14 00:59:04;;;;;;;17.33;6.33;;;;;;;14.79;100.00;101842.69;5050046;28;20429;-89
2021/12/14 01:01:41;;;;;;;27.20;7.37;;;;;;;14.77;100.00;101839.25;5092015;28;20823;-89
2021/12/14 01:04:37;;;;;;;25.30;6.30;;;;;;;14.84;100.00;101846.53;5057505;28;20535;-88
2021/12/14 01:07:07;;;;;;;25.73;6.10;;;;;;;14.85;100.00;101842.72;4999697;28;20462;-89
2021/12/14 01:09:38;;;;;;;27.70;6.47;;;;;;;14.87;100.00;101837.03;5002228;28;20536;-88
2021/12/14 01:12:13;;;;;;;17.80;5.50;;;;;;;14.88;100.00;101838.75;5015495;28;20505;-88
2021/12/14 01:14:59;;;;;;;25.43;6.33;;;;;;;14.91;100.00;101838.34;5001088;28;20423;-88
2021/12/14 01:17:40;;;;;;;39.13;9.00;;;;;;;14.95;100.00;101839.66;5031679;28;20454;-88
2021/12/14 01:20:09;;;;;;;34.10;6.50;;;;;;;14.93;100.00;101839.00;5012311;28;20444;-88
2021/12/14 01:22:42;;;;;;;25.57;6.13;;;;;;;14.90;100.00;101833.91;5012489;28;20479;-88
2021/12/14 01:25:16;;;;;;;36.50;6.40;;;;;;;15.00;100.00;101839.94;5046735;28;20896;-88
2021/12/14 01:27:49;;;;;;;21.30;5.53;;;;;;;14.99;100.00;101832.72;5031955;28;20443;-88
2021/12/14 01:30:28;;;;;;;27.17;6.40;;;;;;;14.98;100.00;101832.94;5013206;28;20491;-89
2021/12/14 01:33:01;;;;;;;27.57;7.03;;;;;;;14.99;100.00;101842.91;4996384;28;20824;-88
2021/12/14 01:35:32;;;;;;;21.30;5.30;;;;;;;14.97;100.00;101839.47;4996146;28;20445;-89
2021/12/14 01:38:47;;;;;;;23.47;4.83;;;;;;;14.99;100.00;101840.13;5013183;28;20444;-88
2021/12/14 01:41:11;;;;;;;32.67;5.70;;;;;;;14.99;100.00;101842.91;5024204;28;20456;-89
2021/12/14 01:43:46;;;;;;;24.00;5.57;;;;;;;15.02;100.00;101848.84;4986020;28;21007;-89
2021/12/14 01:46:23;;;;;;;16.80;4.70;;;;;;;15.02;100.00;101842.47;5078834;28;20472;-89
2021/12/14 01:48:52;;;;;;;26.37;4.53;;;;;;;15.03;100.00;101842.28;5057032;28;20465;-89
2021/12/14 01:51:24;;;;;;;24.00;5.33;;;;;;;15.03;100.00;101842.28;5071019;28;20465;-89
2021/12/14 01:53:53;;;;;;;22.40;4.73;;;;;;;15.05;100.00;101842.09;5037328;28;20403;-89
2021/12/14 01:56:23;;;;;;;21.63;4.80;;;;;;;15.05;100.00;101837.44;5036399;28;20524;-89
2021/12/14 01:58:56;;;;;;;14.10;4.03;;;;;;;15.00;100.00;101834.44;5036726;28;20442;-89
2021/12/14 02:01:34;;;;;;;22.23;5.87;;;;;;;15.03;100.00;101842.28;5036324;28;20470;-89
2021/12/14 02:04:13;;;;;;;18.73;4.97;;;;;;;15.05;100.00;101850.34;5048765;28;20483;-89
2021/12/14 02:06:41;;;;;;;15.83;4.70;;;;;;;15.06;100.00;101841.03;5055925;28;21018;-89
2021/12/14 02:09:15;;;;;;;28.80;5.30;;;;;;;15.06;100.00;101844.66;5032023;28;20603;-89
2021/12/14 02:11:46;;;;;;;21.73;4.60;;;;;;;15.08;100.00;101841.69;5036357;28;20470;-89
2021/12/14 02:14:17;;;;;;;24.30;4.90;;;;;;;15.05;100.00;101842.94;5046024;28;20874;-89
2021/12/14 02:16:54;;;;;;;23.37;4.80;;;;;;;15.08;100.00;101848.06;5056035;28;20935;-87
2021/12/14 02:19:22;;;;;;;26.50;4.70;;;;;;;15.05;100.00;101845.69;5028655;28;20446;-89
2021/12/14 02:21:54;;;;;;;29.47;3.90;;;;;;;15.09;100.00;101846.16;5020415;28;20884;-89
2021/12/14 02:24:24;;;;;;;22.57;4.50;;;;;;;15.06;100.00;101839.13;5047248;28;20465;-89
2021/12/14 02:26:52;;;;;;;17.00;4.33;;;;;;;15.06;100.00;101847.41;5039147;28;20449;-89
2021/12/14 02:29:42;;;;;;;22.13;4.10;;;;;;;15.08;100.00;101848.06;5036079;28;20879;-89
2021/12/14 02:32:21;;;;;;;20.80;5.17;;;;;;;15.04;100.00;101849.50;5039900;28;20943;-89
2021/12/14 02:34:53;;;;;;;17.00;4.00;;;;;;;15.04;100.00;101849.50;5073014;28;20459;-89
2021/12/14 02:37:36;;;;;;;16.97;5.87;;;;;;;15.04;100.00;101845.88;5044780;28;20928;-89
2021/12/14 02:40:17;;;;;;;15.97;4.83;;;;;;;15.05;100.00;101848.44;5052474;28;20434;-88
2021/12/14 02:43:10;;;;;;;16.00;4.10;;;;;;;15.02;100.00;101853.47;5053854;28;20887;-89
2021/12/14 02:45:40;;;;;;;27.47;5.60;;;;;;;15.03;100.00;101860.69;5049659;28;20454;-89
2021/12/14 02:48:08;;;;;;;23.23;4.90;;;;;;;15.02;100.00;101854.34;5042895;28;20446;-89
2021/12/14 02:50:37;;;;;;;25.50;4.13;;;;;;;15.03;100.00;101861.56;5043405;28;20433;-89
2021/12/14 02:53:08;;;;;;;18.73;4.33;;;;;;;15.00;100.00;101856.47;5042171;28;20437;-88
2021/12/14 02:55:36;;;;;;;22.67;4.27;;;;;;;14.99;100.00;101854.75;5056074;28;20447;-89
2021/12/14 02:58:05;;;;;;;12.33;4.00;;;;;;;14.96;100.00;101849.63;5023397;28;20868;-89
2021/12/14 03:00:47;;;;;;;19.47;4.63;;;;;;;14.97;100.00;101856.84;5040457;28;20437;-89
2021/12/14 03:03:15;;;;;;;16.70;3.97;;;;;;;14.96;100.00;101851.53;5035974;28;20429;-89
2021/12/14 03:05:44;;;;;;;25.63;4.97;;;;;;;14.95;100.00;101856.19;5042972;28;20442;-89
2021/12/14 03:08:19;;;;;;;23.00;4.30;;;;;;;14.91;100.00;101851.25;5077312;28;20462;-88
2021/12/14 03:11:09;;;;;;;18.00;3.70;;;;;;;14.92;100.00;101858.47;5075111;28;20437;-88
2021/12/14 03:13:47;;;;;;;18.97;4.40;;;;;;;14.84;100.00;101849.28;5058726;28;20885;-88
2021/12/14 03:16:24;;;;;;;28.97;3.67;;;;;;;14.81;100.00;101848.84;5039063;28;20446;-88
2021/12/14 03:18:54;;;;;;;24.57;4.30;;;;;;;14.80;100.00;101858.16;5077101;28;20975;-88
2021/12/14 03:21:26;;;;;;;16.20;3.50;;;;;;;14.74;100.00;101850.66;5055906;28;20434;-89
2021/12/14 03:23:58;;;;;;;20.67;4.20;;;;;;;14.74;100.00;101851.50;5091031;28;20477;-89
2021/12/14 03:26:28;;;;;;;20.80;4.80;;;;;;;14.71;100.00;101849.13;5055104;28;20906;-89
2021/12/14 03:28:58;;;;;;;15.70;3.73;;;;;;;14.66;100.00;101850.75;5087916;28;20434;-89
2021/12/14 03:31:56;;;;;;;13.03;4.13;;;;;;;14.63;100.00;101853.88;5072257;28;20488;-89
2021/12/14 03:34:24;;;;;;;15.03;3.40;;;;;;;14.62;100.00;101853.06;5056041;28;20513;-89
2021/12/14 03:36:58;;;;;;;14.43;3.00;;;;;;;14.58;100.00;101842.63;5074924;28;20472;-89
2021/12/14 03:39:32;;;;;;;19.17;4.23;;;;;;;14.56;100.00;101855.72;5059237;28;20449;-88
2021/12/14 03:42:23;;;;;;;25.70;4.30;;;;;;;14.47;100.00;101844.81;5095358;28;20950;-88
2021/12/14 03:44:54;;;;;;;17.07;4.90;;;;;;;14.49;100.00;101848.25;5053081;28;20484;-89
2021/12/14 03:47:35;;;;;;;20.70;2.97;;;;;;;14.44;100.00;101847.94;5055175;28;20431;-89
2021/12/14 03:50:17;;;;;;;17.67;3.10;;;;;;;14.43;100.00;101843.50;5071617;28;20857;-89
2021/12/14 03:52:47;;;;;;;16.20;3.70;;;;;;;14.44;100.00;101844.34;5040882;28;20437;-88
2021/12/14 03:55:36;;;;;;;12.83;3.03;;;;;;;14.42;100.00;101847.31;5058369;28;20453;-88
2021/12/14 03:58:15;;;;;;;15.70;3.20;;;;;;;14.41;100.00;101851.13;5058281;28;20455;-88
2021/12/14 04:01:12;;;;;;;11.93;3.27;;;;;;;14.41;100.00;101847.50;5075153;28;20491;-88
2021/12/14 04:03:42;;;;;;;16.80;2.73;;;;;;;14.38;100.00;101848.72;5068684;28;20470;-89
2021/12/14 04:06:11;;;;;;;14.73;3.30;;;;;;;14.38;100.00;101847.84;5038287;28;20446;-88
2021/12/14 04:08:39;;;;;;;12.30;3.27;;;;;;;14.35;100.00;101839.97;5060098;28;20557;-88
2021/12/14 04:11:08;;;;;;;14.70;3.40;;;;;;;14.36;100.00;101852.69;5058085;28;20888;-89
2021/12/14 04:13:38;;;;;;;16.70;2.80;;;;;;;14.35;100.00;101842.72;5054548;28;20446;-89
2021/12/14 04:16:06;;;;;;;14.90;2.87;;;;;;;14.37;100.00;101841.50;5054671;28;20442;-89
2021/12/14 04:18:35;;;;;;;17.77;3.30;;;;;;;14.36;100.00;101839.78;5054289;28;21051;-88
2021/12/14 04:21:15;;;;;;;12.73;3.10;;;;;;;14.35;100.00;101835.34;5038483;28;20439;-89
2021/12/14 04:23:50;;;;;;;11.57;2.97;;;;;;;14.31;100.00;101834.00;5054297;28;20438;-89
2021/12/14 04:26:19;;;;;;;12.17;3.50;;;;;;;14.33;100.00;101831.94;5053920;28;20505;-89
2021/12/14 04:28:52;;;;;;;12.57;3.00;;;;;;;14.34;100.00;101830.88;5071440;28;20435;-88
2021/12/14 04:31:21;;;;;;;15.53;2.93;;;;;;;14.34;100.00;101833.63;5054833;28;20434;-89
2021/12/14 04:33:50;;;;;;;10.07;2.47;;;;;;;14.34;100.00;101830.88;5066535;28;20445;-88
2021/12/14 04:36:24;;;;;;;11.10;3.10;;;;;;;14.33;100.00;101831.06;5087737;28;20439;-88
2021/12/14 04:39:21;;;;;;;11.70;3.00;;;;;;;14.33;100.00;101831.06;5070150;28;20448;-89
2021/12/14 04:53:22;;;;;;;17.53;2.63;;;;;;;14.24;100.00;101832.22;5054055;28;20438;-88
2021/12/14 04:55:53;;;;;;;9.60;2.70;;;;;;;14.20;100.00;101831.75;5055066;28;20458;-89
2021/12/14 04:58:30;;;;;;;13.60;2.43;;;;;;;14.17;100.00;101827.50;5073721;28;20944;-89
2021/12/14 05:01:01;;;;;;;14.63;3.27;;;;;;;14.17;100.00;101832.13;5073036;28;20449;-89
2021/12/14 05:04:03;;;;;;;14.93;3.10;;;;;;;14.16;100.00;101836.78;5073280;28;20472;-89
2021/12/14 05:06:55;;;;;;;13.17;2.80;;;;;;;14.11;100.00;101833.75;5064288;28;20450;-89
2021/12/14 05:09:29;;;;;;;11.10;2.70;;;;;;;14.09;100.00;101824.81;5053888;28;20470;-89
2021/12/14 05:12:23;;;;;;;10.87;3.37;;;;;;;14.11;100.00;101838.38;5070845;28;20433;-89
2021/12/14 05:14:52;;;;;;;13.37;2.93;;;;;;;14.08;100.00;101825.00;5047816;28;20442;-90
2021/12/14 05:17:23;;;;;;;8.17;2.37;;;;;;;14.11;100.00;101832.88;5086610;28;20445;-89
2021/12/14 05:19:53;;;;;;;14.33;2.80;;;;;;;14.09;100.00;101827.56;5090486;28;20948;-89
2021/12/14 05:22:26;;;;;;;6.67;3.00;;;;;;;14.15;100.00;101828.72;5072588;28;20439;-89
2021/12/14 05:24:59;;;;;;;10.37;2.37;;;;;;;14.12;100.00;101818.94;5072817;28;20987;-90
2021/12/14 05:27:35;;;;;;;12.10;3.20;;;;;;;14.18;100.00;101840.19;5073105;28;20958;-90
2021/12/14 05:30:12;;;;;;;12.20;2.67;;;;;;;14.15;100.00;101826.81;5053232;28;20438;-89
2021/12/14 05:32:42;;;;;;;8.77;2.77;;;;;;;14.21;100.00;101833.47;5037064;28;20463;-89
2021/12/14 05:35:12;;;;;;;11.60;2.57;;;;;;;14.15;100.00;101817.72;5054627;28;21030;-90
2021/12/14 05:37:48;;;;;;;8.17;2.63;;;;;;;14.23;100.00;101828.63;5086743;28;20963;-89
2021/12/14 05:40:40;;;;;;;11.47;2.80;;;;;;;14.24;100.00;101833.06;5053177;28;20450;-89
2021/12/14 05:43:15;;;;;;;9.50;2.93;;;;;;;14.25;100.00;101837.50;5080096;28;20446;-89
2021/12/14 05:45:49;;;;;;;18.13;4.93;;;;;;;14.27;100.00;101838.19;5089683;28;20481;-89
2021/12/14 05:48:22;;;;;;;15.03;4.10;;;;;;;14.26;100.00;101830.97;5072477;28;20433;-90
2021/12/14 05:50:55;;;;;;;15.47;2.73;;;;;;;14.26;100.00;101833.72;5056448;28;20473;-89
2021/12/14 05:53:30;;;;;;;10.70;2.80;;;;;;;14.28;100.00;101839.88;5053244;28;20461;-89
2021/12/14 05:56:01;;;;;;;15.67;3.47;;;;;;;14.28;100.00;101831.63;5052716;28;20485;-89
2021/12/14 05:58:32;;;;;;;8.30;2.97;;;;;;;14.28;100.00;101828.88;5066889;28;20520;-90
2021/12/14 06:01:25;;;;;;;15.00;3.00;;;;;;;14.31;100.00;101839.50;5072517;28;20472;-89
2021/12/14 06:03:59;;;;;;;19.27;3.13;;;;;;;14.28;100.00;101839.88;5078076;28;20451;-89
2021/12/14 06:06:41;;;;;;;15.50;2.50;;;;;;;14.31;100.00;101834.00;5068986;28;20931;-89
2021/12/14 06:09:27;;;;;;;10.23;2.47;;;;;;;14.34;100.00;101847.38;5052493;28;20509;-88
2021/12/14 06:12:06;;;;;;;7.50;2.27;;;;;;;14.35;100.00;101842.72;5036141;28;20473;-89
2021/12/14 06:14:41;;;;;;;10.60;3.53;;;;;;;14.35;100.00;101834.47;5065047;28;20437;-89
2021/12/14 06:17:11;;;;;;;10.20;3.03;;;;;;;14.36;100.00;101836.19;5057073;28;20447;-89
2021/12/14 06:19:42;;;;;;;10.53;2.50;;;;;;;14.31;100.00;101836.75;5059130;28;20434;-89
2021/12/14 06:22:18;;;;;;;8.40;2.63;;;;;;;14.35;100.00;101838.09;5052383;28;20439;-89
2021/12/14 06:25:10;;;;;;;8.43;2.50;;;;;;;14.35;100.00;101845.47;5050356;28;20465;-89
2021/12/14 06:27:40;;;;;;;15.70;3.10;;;;;;;14.33;100.00;101848.44;5061015;28;20442;-88
2021/12/14 06:30:10;;;;;;;16.40;2.97;;;;;;;14.35;100.00;101850.97;5052150;28;20451;-89
2021/12/14 06:32:43;;;;;;;14.40;3.23;;;;;;;14.35;100.00;101857.34;5052590;28;20803;-89
2021/12/14 06:35:17;;;;;;;8.13;2.80;;;;;;;14.34;100.00;101850.13;5070288;28;20446;-89
2021/12/14 06:38:29;;;;;;;10.33;2.93;;;;;;;14.34;100.00;101861.13;5072113;28;20438;-89
2021/12/14 06:41:09;;;;;;;7.37;2.23;;;;;;;14.35;100.00;101871.09;5068657;28;20445;-89
2021/12/14 06:43:52;;;;;;;8.30;3.60;;;;;;;14.36;100.00;101874.69;5057803;28;20437;-90
2021/12/14 06:46:24;;;;;;;14.93;5.50;;;;;;;14.32;100.00;101868.72;5072623;28;20485;-90
2021/12/14 06:49:00;;;;;;;9.63;3.33;;;;;;;14.35;100.00;101879.34;5063220;28;20546;-90
2021/12/14 06:51:49;;;;;;;21.37;8.30;;;;;;;14.29;100.00;101866.34;5091002;28;20514;-91
2021/12/14 06:54:28;;;;;;;25.30;9.97;;;;;;;14.33;100.00;101875.06;5062144;28;20529;-90
2021/12/14 06:56:59;;;;;;;38.63;15.83;;;;;;;14.31;100.00;101869.75;5068253;28;20462;-90
2021/12/14 06:59:34;;;;;;;22.37;8.97;;;;;;;14.32;100.00;101885.22;5052741;28;20967;-90
2021/12/14 07:02:14;;;;;;;17.10;4.67;;;;;;;14.25;100.00;101873.25;5069048;28;20509;-90
2021/12/14 07:04:48;;;;;;;13.27;2.83;;;;;;;14.30;100.00;101881.81;5083219;28;20518;-90
2021/12/14 07:07:27;;;;;;;8.10;2.50;;;;;;;14.30;100.00;101892.81;5056372;28;20445;-90
2021/12/14 07:09:59;;;;;;;15.93;2.80;;;;;;;14.30;100.00;101897.44;5040735;28;20465;-90
2021/12/14 07:12:34;;;;;;;10.40;2.40;;;;;;;14.25;100.00;101887.00;5072659;28;20437;-90
2021/12/14 07:15:45;;;;;;;15.20;2.50;;;;;;;14.24;100.00;101882.56;5024622;28;20872;-91
2021/12/14 07:18:13;;;;;;;18.47;3.37;;;;;;;14.25;100.00;101892.50;5070282;28;20450;-90
2021/12/14 07:20:49;;;;;;;8.17;3.60;;;;;;;14.23;100.00;101891.88;5055339;28;22188;-91
2021/12/14 07:23:28;;;;;;;15.23;2.57;;;;;;;14.27;100.00;101895.94;5050860;28;20867;-91
2021/12/14 07:26:06;;;;;;;12.03;2.73;;;;;;;14.26;100.00;101896.97;5052085;28;20987;-91
2021/12/14 07:28:41;;;;;;;14.13;2.63;;;;;;;14.27;100.00;101904.19;5055249;28;20430;-91
2021/12/14 07:31:23;;;;;;;11.83;3.00;;;;;;;14.27;100.00;101903.31;5039866;28;20512;-91
2021/12/14 07:34:11;;;;;;;13.77;2.80;;;;;;;14.28;100.00;101905.03;5069359;28;20446;-93
2021/12/14 07:36:40;;;;;;;12.60;2.50;;;;;;;14.27;100.00;101903.31;5088735;28;20458;-91
2021/12/14 07:39:14;;;;;;;19.97;2.93;;;;;;;14.27;100.00;101908.81;5059051;28;20464;-91
2021/12/14 07:45:23;;;;;;;10.50;2.33;;;;;;;14.24;100.00;101903.72;5075221;28;20477;-92
2021/12/14 07:47:54;;;;;;;6.00;2.00;;;;;;;14.22;100.00;101905.81;5042800;28;20469;-92
2021/12/14 07:50:39;;;;;;;19.27;2.90;;;;;;;14.23;100.00;101902.03;5058938;28;20487;-92
2021/12/14 07:53:33;;;;;;;15.00;2.90;;;;;;;14.21;100.00;101907.72;5042223;28;20464;-91
2021/12/14 07:56:05;;;;;;;8.90;2.80;;;;;;;14.23;100.00;101918.53;5002125;28;20953;-91
2021/12/14 07:58:38;;;;;;;11.33;2.60;;;;;;;14.20;100.00;101917.00;5001382;28;20863;-91
2021/12/14 08:01:07;;;;;;;6.13;2.80;;;;;;;14.19;100.00;101926.28;5002211;28;20439;-91
2021/12/14 08:03:44;;;;;;;11.90;2.20;;;;;;;14.18;100.00;101927.31;5017770;28;20442;-92
2021/12/14 08:06:13;;;;;;;10.00;2.33;;;;;;;14.16;100.00;101923.91;4997484;28;20484;-88
2021/12/14 08:08:55;;;;;;;10.83;2.43;;;;;;;14.16;100.00;101929.41;4998229;28;20467;-90
2021/12/14 08:14:43;;;;;;;10.50;2.90;;;;;;;14.16;100.00;101930.25;4943213;29;20447;-91
2021/12/14 08:17:19;;;;;;;11.90;3.10;;;;;;;14.17;100.00;101931.97;4955428;29;20439;-91
2021/12/14 08:19:58;;;;;;;11.47;2.60;;;;;;;14.17;100.00;101920.13;4940497;29;20506;-92
2021/12/14 08:22:48;;;;;;;16.43;2.90;;;;;;;14.23;100.00;101932.28;4949837;29;21018;-91
2021/12/14 08:25:46;;;;;;;7.17;2.40;;;;;;;14.18;100.00;101919.94;4966745;29;20472;-91
2021/12/14 08:28:18;;;;;;;10.50;2.83;;;;;;;14.28;100.00;101941.63;4948573;29;20459;-92
2021/12/14 08:31:08;;;;;;;9.37;2.00;;;;;;;14.31;100.00;101941.25;4936779;29;20466;-91
2021/12/14 08:33:52;;;;;;;6.13;2.40;;;;;;;14.28;100.00;101927.03;4965478;28;20469;-91
2021/12/14 08:36:20;;;;;;;8.50;2.37;;;;;;;14.36;100.00;101944.31;4997732;28;20448;-91
2021/12/14 08:39:03;;;;;;;6.40;2.50;;;;;;;14.37;100.00;101940.50;4980978;28;20444;-90
2021/12/14 08:41:33;;;;;;;15.70;3.40;;;;;;;14.40;100.00;101942.94;4981121;28;20444;-90
2021/12/14 08:44:11;;;;;;;10.03;3.20;;;;;;;14.40;100.00;101931.94;4977913;28;20442;-91
2021/12/14 08:46:45;;;;;;;8.83;2.60;;;;;;;14.41;100.00;101938.28;4996676;28;20483;-92
2021/12/14 08:49:15;;;;;;;5.53;2.10;;;;;;;14.42;100.00;101940.00;5012950;28;20436;-91
2021/12/14 08:51:49;;;;;;;5.53;2.30;;;;;;;14.42;100.00;101945.50;5031262;28;20441;-91
2021/12/14 08:54:29;;;;;;;10.43;2.53;;;;;;;14.45;100.00;101934.94;5072989;28;20463;-91
2021/12/14 08:57:18;;;;;;;8.67;2.40;;;;;;;14.45;100.00;101928.56;5053678;28;20804;-91
2021/12/14 08:59:55;;;;;;;6.40;3.00;;;;;;;14.47;100.00;101921.84;5055268;28;20438;-91
2021/12/14 09:02:30;;;;;;;7.80;2.57;;;;;;;14.54;100.00;101932.94;5055404;28;20449;-91
2021/12/14 09:05:18;;;;;;;9.27;2.63;;;;;;;14.58;100.00;101933.44;5086389;28;20471;-91
2021/12/14 09:08:13;;;;;;;14.43;2.30;;;;;;;14.67;100.00;101935.88;5081881;28;20443;-91
2021/12/14 09:10:45;;;;;;;7.57;2.37;;;;;;;14.71;100.00;101941.84;5026272;28;20501;-90
2021/12/14 09:13:13;;;;;;;12.20;2.50;;;;;;;14.73;100.00;101931.50;5030903;28;20538;-86
2021/12/14 09:15:56;;;;;;;7.20;2.40;;;;;;;14.80;100.00;101943.47;5032742;28;21000;-86
2021/12/14 09:18:26;;;;;;;12.50;2.67;;;;;;;14.87;100.00;101941.63;5033482;28;20442;-86
2021/12/14 09:20:57;;;;;;;11.73;2.87;;;;;;;15.01;100.00;101946.25;5037018;28;20438;-88
2021/12/14 09:23:31;;;;;;;11.30;4.03;;;;;;;15.09;100.00;101946.13;5014390;28;20473;-88
2021/12/14 09:26:03;;;;;;;9.70;2.90;;;;;;;15.17;100.00;101951.53;5052378;28;20569;-87
2021/12/14 09:28:35;;;;;;;11.63;3.30;;;;;;;15.21;100.00;101950.09;5033728;28;20436;-88
2021/12/14 09:31:08;;;;;;;10.30;2.70;;;;;;;15.23;100.00;101954.53;5054210;28;20440;-89
2021/12/14 09:33:41;;;;;;;16.97;3.50;;;;;;;15.25;100.00;101960.72;5022448;28;20449;-88
2021/12/14 09:36:12;;;;;;;8.57;3.10;;;;;;;15.25;100.00;101950.56;5035279;28;20446;-88
2021/12/14 09:38:56;;;;;;;14.30;3.17;;;;;;;15.35;100.00;101964.03;5020245;28;20443;-90
2021/12/14 09:41:31;;;;;;;13.20;3.87;;;;;;;15.42;100.00;101962.16;5017642;28;20444;-88
2021/12/14 09:44:01;;;;;;;14.80;3.67;;;;;;;15.51;100.00;101963.75;5035480;28;20442;-87
2021/12/14 09:46:29;;;;;;;15.23;2.63;;;;;;;15.59;100.00;101955.38;5035975;28;21011;-88
2021/12/14 09:49:01;;;;;;;13.40;3.80;;;;;;;15.73;100.00;101962.75;5043423;28;20443;-88
2021/12/14 09:51:44;;;;;;;21.53;3.53;;;;;;;15.78;100.00;101959.38;5030968;28;20483;-87
2021/12/14 09:54:14;;;;;;;22.30;3.83;;;;;;;15.80;100.00;101968.31;5049322;28;20802;-87
2021/12/14 09:56:48;;;;;;;12.20;2.90;;;;;;;15.81;100.00;101967.25;5036517;28;20434;-86
2021/12/14 10:03:05;;;;;;;6.90;2.83;;;;;;;15.85;100.00;101972.19;5038284;28;20566;-88
2021/12/14 10:05:44;;;;;;;11.97;2.73;;;;;;;15.74;100.00;101958.94;5023930;28;20523;-88
2021/12/14 10:08:18;;;;;;;8.60;3.07;;;;;;;15.80;100.00;101969.16;5025207;28;20904;-87
2021/12/14 10:11:03;;;;;;;10.43;2.40;;;;;;;15.89;100.00;101980.91;5003149;28;20485;-89
2021/12/14 10:13:33;;;;;;;14.47;2.97;;;;;;;15.92;100.00;101966.72;5051719;28;20475;-88
2021/12/14 10:16:05;;;;;;;5.97;2.20;;;;;;;16.12;100.00;101983.44;5017980;28;20982;-88
2021/12/14 10:18:46;;;;;;;14.43;2.57;;;;;;;16.20;100.00;101977.75;5046175;28;20443;-88
2021/12/14 10:21:22;;;;;;;5.60;2.20;;;;;;;16.36;100.00;101976.59;5033587;28;20546;-88
2021/12/14 10:23:52;;;;;;;11.07;2.90;;;;;;;16.42;100.00;101968.38;5045518;28;20529;-89
2021/12/14 10:26:23;;;;;;;15.17;3.37;;;;;;;16.56;100.00;101975.66;5033502;28;20566;-88
2021/12/14 10:28:51;;;;;;;13.70;3.67;;;;;;;;;;5051266;28;20810;-88
2021/12/14 10:31:25;;;;;;;15.43;3.67;;;;;;;;;;5044924;28;20525;-88
2021/12/14 10:33:53;;;;;;;8.97;3.30;;;;;;;;;;5043396;28;20456;-88
2021/12/14 10:36:29;;;;;;;13.93;3.37;;;;;;;;;;5022705;28;20529;-88
2021/12/14 10:39:07;;;;;;;11.73;3.30;;;;;;;;;;5029470;28;20448;-89
2021/12/14 10:44:22;;;;;;;23.00;2.90;;;;;;;;;;5048895;28;20505;-89
2021/12/14 10:46:51;;;;;;;10.80;2.50;;;;;;;;;;5033372;28;20504;-89
2021/12/14 10:49:20;;;;;;;16.83;2.70;;;;;;;;;;5066110;28;20817;-88
2021/12/14 10:51:49;;;;;;;11.43;2.70;;;;;;;;;;5051193;28;20979;-89
2021/12/14 10:54:17;;;;;;;8.90;2.73;;;;;;;;;;5051473;28;20827;-89
2021/12/14 10:56:47;;;;;;;11.00;3.30;;;;;;;;;;5035024;28;20438;-89
2021/12/14 10:59:15;;;;;;;17.53;3.23;;;;;;;;;;5033699;28;20530;-89
2021/12/14 11:01:49;;;;;;;24.93;10.03;;;;;;;;;;5016503;28;20526;-89
2021/12/14 11:04:41;;;;;;;11.10;3.90;;;;;;;;;;5054304;28;20490;-90
2021/12/14 11:07:12;;;;;;;9.33;2.87;;;;;;;;;;5035686;28;20478;-89
2021/12/14 11:09:45;;;;;;;15.40;3.20;;;;;;;;;;5037611;28;20473;-88
2021/12/14 11:12:17;;;;;;;10.60;2.70;;;;;;;;;;5031927;28;20430;-88
2021/12/14 11:14:46;;;;;;;17.70;3.50;;;;;;;;;;5038789;28;20445;-88
2021/12/14 11:20:12;;;;;;;13.80;3.37;;;;;;;;;;5065086;28;21253;-89
2021/12/14 11:22:42;;;;;;;12.27;3.33;;;;;;;;;;5070281;28;20804;-88
2021/12/14 11:25:27;;;;;;;8.20;2.90;;;;;;;;;;5059341;28;20450;-88
2021/12/14 11:27:58;;;;;;;11.30;2.20;;;;;;;;;;5053597;28;20989;-88
2021/12/14 11:30:34;;;;;;;17.93;3.80;;;;;;;;;;5054837;28;20441;-89
2021/12/14 11:33:01;;;;;;;10.70;2.60;;;;;;;;;;5049836;28;20442;-89
2021/12/14 11:35:30;;;;;;;17.73;2.13;;;;;;;;;;5077217;28;20453;-89
2021/12/14 11:38:01;;;;;;;11.30;2.70;;;;;;;;;;5040440;28;20429;-88
2021/12/14 11:40:29;;;;;;;15.97;3.17;;;;;;;;;;5046231;28;20436;-88
2021/12/14 11:43:17;;;;;;;10.77;2.90;;;;;;;;;;5035901;28;20442;-88
2021/12/14 11:45:46;;;;;;;14.10;2.73;;;;;;;;;;5061207;28;20537;-88
2021/12/14 11:48:15;;;;;;;10.27;2.13;;;;;;;;;;5058088;28;20442;-87
2021/12/14 11:50:44;;;;;;;12.20;2.60;;;;;;;;;;5074373;28;20442;-87
2021/12/14 11:53:35;;;;;;;12.50;3.00;;;;;;;;;;5053030;28;20472;-88
2021/12/14 11:56:06;;;;;;;13.47;3.70;;;;;;;;;;5039168;28;20460;-89
2021/12/14 11:58:38;;;;;;;9.33;2.77;;;;;;;;;;5039487;28;21035;-88
2021/12/14 12:01:15;;;;;;;14.20;2.83;;;;;;;;;;5048949;28;20441;-89
2021/12/14 12:04:00;;;;;;;13.50;2.47;;;;;;;;;;5046472;28;20512;-88
2021/12/14 12:09:28;;;;;;;13.83;2.70;;;;;;;;;;5070036;28;20473;-89
2021/12/14 12:12:01;;;;;;;7.80;2.23;;;;;;;;;;5073472;28;20442;-88
2021/12/14 12:14:38;;;;;;;13.83;3.30;;;;;;;;;;5076373;28;20482;-89
2021/12/14 12:17:11;;;;;;;11.40;3.10;;;;;;;;;;5085309;28;20475;-88
2021/12/14 12:19:40;;;;;;;14.90;3.40;;;;;;;;;;5069589;28;20453;-89
2021/12/14 12:22:12;;;;;;;13.90;3.23;;;;;;;;;;5044101;28;20952;-88
2021/12/14 12:25:05;;;;;;;15.77;3.57;;;;;;;;;;5037141;28;20441;-89
2021/12/14 12:27:40;;;;;;;11.63;2.70;;;;;;;;;;5060578;28;20493;-89
2021/12/14 12:30:31;;;;;;;10.53;3.03;;;;;;;;;;5056473;28;20486;-87
2021/12/14 12:33:12;;;;;;;23.43;3.90;;;;;;;;;;5067437;28;21273;-86
2021/12/14 12:35:41;;;;;;;20.10;4.87;;;;;;;;;;5056434;28;20511;-86
2021/12/14 12:38:25;;;;;;;22.73;4.77;;;;;;;;;;5053601;28;20945;-87
2021/12/14 12:41:05;;;;;;;12.00;3.83;;;;;;;;;;5074707;28;20841;-86
2021/12/14 12:43:35;;;;;;;9.80;2.43;;;;;;;;;;5065519;28;20449;-88
2021/12/14 12:46:27;;;;;;;10.50;2.83;;;;;;;;;;5057099;28;20456;-87
2021/12/14 12:49:01;;;;;;;15.03;3.13;;;;;;;;;;5054493;28;20429;-86
2021/12/14 12:51:44;;;;;;;14.27;3.33;;;;;;;;;;5073230;28;20804;-86
2021/12/14 12:54:15;;;;;;;44.37;2.57;;;;;;;;;;5056926;28;20425;-87